WetterOnline ( https://www.wetteronline.de )

Wetter aktuell Admannshagen-Bargeshagen

Aktuelles Wetter: Rostock-Warnemünde (10m)

6-stündlich | Neueste Meldungen
Ortszeit Temperatur Wetter
Mi, 17.08. 14:00 23.2° C leicht bewölkt
Mi, 17.08. 8:00 20.7° C leicht bewölkt
Mi, 17.08. 2:00 20.5° C bedeckt
Di, 16.08. 20:00 23.3° C wolkig
Di, 16.08. 14:00 23.1° C leicht bewölkt
Di, 16.08. 8:00 20.9° C bedeckt
Di, 16.08. 2:00 20.6° C bewölkt
Mo, 15.08. 20:00 25.0° C wolkig
Ortszeit Temperatur Wetter
Mi, 17.08. 18:00 23.5° C leicht bewölkt
Mi, 17.08. 17:50 23.5° C leicht bewölkt
Mi, 17.08. 17:40 23.9° C bedeckt
Mi, 17.08. 17:30 24.1° C leicht bewölkt
Mi, 17.08. 17:20 24.1° C leicht bewölkt
Mi, 17.08. 17:10 23.8° C leicht bewölkt
Mi, 17.08. 17:00 24.3° C fast wolkenlos
Mi, 17.08. 16:30 24.9° C wolkig
Mi, 17.08. 16:00 23.9° C leicht bewölkt
Mi, 17.08. 15:30 23.3° C fast wolkenlos
Mi, 17.08. 15:00 23.4° C leicht bewölkt
Ortszeit Relative Feuchte Sichtweite
Mi, 17.08. 14:00 77% 14 km
Mi, 17.08. 8:00 80% 21 km
Mi, 17.08. 2:00 78% 30 km
Di, 16.08. 20:00 74% 30 km
Di, 16.08. 14:00 74% 30 km
Di, 16.08. 8:00 81% 30 km
Di, 16.08. 2:00 90% 29 km
Mo, 15.08. 20:00 70% 30 km
Ortszeit Relative Feuchte Sichtweite
Mi, 17.08. 18:00 70% 30 km
Mi, 17.08. 17:50 70% -
Mi, 17.08. 17:40 66% -
Mi, 17.08. 17:30 67% 30 km
Mi, 17.08. 17:20 67% -
Mi, 17.08. 17:10 68% -
Mi, 17.08. 17:00 67% 29 km
Mi, 17.08. 16:30 64% 30 km
Mi, 17.08. 16:00 68% 22 km
Mi, 17.08. 15:30 73% 16 km
Mi, 17.08. 15:00 71% 23 km
Ortszeit Niederschlagsmenge Niederschlagsart
Mi, 17.08. 14:00 0.0 l/m2 in 6 Std. -
Mi, 17.08. 8:00 0.0 l/m2 in 12 Std. -
Mi, 17.08. 2:00 0.0 l/m2 in 6 Std. -
Di, 16.08. 20:00 0.4 l/m2 in 12 Std. Regen
Di, 16.08. 14:00 0.0 l/m2 in 6 Std. -
Di, 16.08. 8:00 2 l/m2 in 12 Std. -
Di, 16.08. 2:00 2 l/m2 in 6 Std. Regen
Mo, 15.08. 20:00 0.3 l/m2 in 12 Std. Regen
Ortszeit Niederschlagsmenge Niederschlagsart
Mi, 17.08. 18:00 0.0 l/m2 in 1 Std. -
Mi, 17.08. 17:50 keine Meldung -
Mi, 17.08. 17:40 keine Meldung -
Mi, 17.08. 17:30 0.0 l/m2 in 1 Std. -
Mi, 17.08. 17:20 keine Meldung -
Mi, 17.08. 17:10 keine Meldung -
Mi, 17.08. 17:00 0.0 l/m2 in 1 Std. -
Mi, 17.08. 16:30 0.0 l/m2 in 1 Std. -
Mi, 17.08. 16:00 0.0 l/m2 in 1 Std. -
Mi, 17.08. 15:30 0.0 l/m2 in 1 Std. -
Mi, 17.08. 15:00 0.0 l/m2 in 1 Std. -
Ortszeit Stärke Spitze Richtung
km/h Bft. km/h Grad Sektor
Mi, 17.08. 14:00 11 2 18 10° N
Mi, 17.08. 8:00 4 1 14 320° NW
Mi, 17.08. 2:00 9 2 15 170° S
Di, 16.08. 20:00 11 2 29 310° NW
Di, 16.08. 14:00 20 4 28 300° NW
Di, 16.08. 8:00 11 2 25 200° S
Di, 16.08. 2:00 7 2 25 170° S
Mo, 15.08. 20:00 9 2 33 100° O
Ortszeit Stärke Spitze Richtung
km/h Bft. km/h Grad Sektor
Mi, 17.08. 18:00 18 3 29 30° NO
Mi, 17.08. 17:50 18 3 - 30° NO
Mi, 17.08. 17:40 17 3 - 30° NO
Mi, 17.08. 17:30 18 3 29 30° NO
Mi, 17.08. 17:20 18 3 - 30° NO
Mi, 17.08. 17:10 19 3 - 30° NO
Mi, 17.08. 17:00 19 3 30 30° NO
Mi, 17.08. 16:30 18 3 25 30° NO
Mi, 17.08. 16:00 14 3 29 40° NO
Mi, 17.08. 15:30 17 3 26 30° NO
Mi, 17.08. 15:00 14 3 25 30° NO
Ortszeit Untergrenze Bedeckung Gattung
total tief tief mittel hoch
Mi, 17.08. 14:00 8100 m 7/8 0/8 - - -
Mi, 17.08. 8:00 8400 m 7/8 0/8 - - -
Mi, 17.08. 2:00 4800 m 8/8 8/8 - - -
Di, 16.08. 20:00 2100 m 8/8 2/8 - - -
Di, 16.08. 14:00 1350 m 2/8 2/8 - - -
Di, 16.08. 8:00 1440 m 8/8 8/8 - - -
Di, 16.08. 2:00 1320 m 8/8 7/8 - - -
Mo, 15.08. 20:00 2100 m 8/8 2/8 - - -
Ortszeit Bedeckungsgrad in Achtel und Wolkenuntergrenze
Mi, 17.08. 18:00 1(6900m) 4(7800m) 5(9000m)
Mi, 17.08. 17:50 1(6900m) 4(7800m) 5(9000m)
Mi, 17.08. 17:40 8
Mi, 17.08. 17:30 4(8100m) 5(9000m)
Mi, 17.08. 17:20 4(8100m) 5(9000m)
Mi, 17.08. 17:10 2
Mi, 17.08. 17:00 1(8400m)
Mi, 17.08. 16:30 7(7200m) 7(8400m)
Mi, 17.08. 16:00 2(7500m) 3(8400m)
Mi, 17.08. 15:30 1(8400m)
Mi, 17.08. 15:00 7(10500m)
Ortszeit Luftdruck NN (hPa) Tendenz (hPa in 3 Std.)
Mi, 17.08. 14:00 1013 - 0,2
Mi, 17.08. 8:00 1012 + 0,8
Mi, 17.08. 2:00 1011 + 0,4
Di, 16.08. 20:00 1010 + 1,3
Di, 16.08. 14:00 1008 + 1,1
Di, 16.08. 8:00 1006 + 0,7
Di, 16.08. 2:00 1005 0,0
Mo, 15.08. 20:00 1004 + 0,2
Ortszeit Luftdruck NN (hPa) Tendenz (hPa in 3 Std.)
Mi, 17.08. 18:00 1012 - 0,5
Mi, 17.08. 17:50 1012 keine Meldung
Mi, 17.08. 17:40 1012 keine Meldung
Mi, 17.08. 17:30 1012 - 0,7
Mi, 17.08. 17:20 1012 keine Meldung
Mi, 17.08. 17:10 1012 keine Meldung
Mi, 17.08. 17:00 1012 - 0,6
Mi, 17.08. 16:30 1012 - 0,5
Mi, 17.08. 16:00 1012 - 0,5
Mi, 17.08. 15:30 1013 - 0,4
Mi, 17.08. 15:00 1013 - 0,3
Ortszeit Schneehöhe (cm)
Mi, 17.08. 14:00 0
Mi, 17.08. 8:00 0
Mi, 17.08. 2:00 0
Di, 16.08. 20:00 0
Di, 16.08. 14:00 0
Di, 16.08. 8:00 0
Di, 16.08. 2:00 0
Mo, 15.08. 20:00 0
Ortszeit Schneehöhe (cm)
Mi, 17.08. 18:00 0
Mi, 17.08. 17:50 0
Mi, 17.08. 17:40 0
Mi, 17.08. 17:30 0
Mi, 17.08. 17:20 0
Mi, 17.08. 17:10 0
Mi, 17.08. 17:00 0
Mi, 17.08. 16:30 0
Mi, 17.08. 16:00 0
Mi, 17.08. 15:30 0
Mi, 17.08. 15:00 0
Link zu dieser Seite / Seite empfehlen

Das Wetter in ...